sensor_id;sensor_type;location;lat;lon;timestamp;P1;durP1;ratioP1;P2;durP2;ratioP2
21959;SDS011;11144;43.030;25.108;2022-10-23T00:00:34;24.48;;;10.93;;
21959;SDS011;11144;43.030;25.108;2022-10-23T00:02:08;25.73;;;10.73;;
21959;SDS011;11144;43.030;25.108;2022-10-23T00:03:43;26.05;;;12.07;;
21959;SDS011;11144;43.030;25.108;2022-10-23T00:05:16;19.80;;;10.77;;
21959;SDS011;11144;43.030;25.108;2022-10-23T00:06:49;32.05;;;13.25;;
21959;SDS011;11144;43.030;25.108;2022-10-23T00:08:23;26.90;;;12.00;;
21959;SDS011;11144;43.030;25.108;2022-10-23T00:09:55;14.18;;;8.52;;
21959;SDS011;11144;43.030;25.108;2022-10-23T00:11:28;11.85;;;7.47;;
21959;SDS011;11144;43.030;25.108;2022-10-23T00:13:02;18.55;;;8.13;;
21959;SDS011;11144;43.030;25.108;2022-10-23T00:14:34;12.52;;;7.07;;
21959;SDS011;11144;43.030;25.108;2022-10-23T00:16:08;14.98;;;8.35;;
21959;SDS011;11144;43.030;25.108;2022-10-23T00:17:41;13.45;;;7.97;;
21959;SDS011;11144;43.030;25.108;2022-10-23T00:19:16;11.98;;;7.28;;
21959;SDS011;11144;43.030;25.108;2022-10-23T00:20:50;13.70;;;7.63;;
21959;SDS011;11144;43.030;25.108;2022-10-23T00:22:22;13.52;;;7.32;;
21959;SDS011;11144;43.030;25.108;2022-10-23T00:23:55;16.02;;;7.97;;
21959;SDS011;11144;43.030;25.108;2022-10-23T00:25:29;14.13;;;7.55;;
21959;SDS011;11144;43.030;25.108;2022-10-23T00:27:03;13.40;;;7.75;;
21959;SDS011;11144;43.030;25.108;2022-10-23T00:28:36;15.43;;;8.55;;
21959;SDS011;11144;43.030;25.108;2022-10-23T00:30:10;18.33;;;8.95;;
21959;SDS011;11144;43.030;25.108;2022-10-23T00:31:44;22.10;;;11.35;;
21959;SDS011;11144;43.030;25.108;2022-10-23T00:33:18;18.02;;;10.38;;
21959;SDS011;11144;43.030;25.108;2022-10-23T00:34:51;19.63;;;10.57;;
21959;SDS011;11144;43.030;25.108;2022-10-23T00:36:25;22.88;;;11.05;;
21959;SDS011;11144;43.030;25.108;2022-10-23T00:37:58;19.83;;;10.50;;
21959;SDS011;11144;43.030;25.108;2022-10-23T00:39:31;19.92;;;10.07;;
21959;SDS011;11144;43.030;25.108;2022-10-23T00:41:04;17.13;;;9.07;;
21959;SDS011;11144;43.030;25.108;2022-10-23T00:42:39;12.07;;;6.85;;
21959;SDS011;11144;43.030;25.108;2022-10-23T00:46:19;11.80;;;7.18;;
21959;SDS011;11144;43.030;25.108;2022-10-23T00:47:52;11.60;;;7.07;;
21959;SDS011;11144;43.030;25.108;2022-10-23T00:49:26;12.00;;;6.57;;
21959;SDS011;11144;43.030;25.108;2022-10-23T00:51:00;12.15;;;7.47;;
21959;SDS011;11144;43.030;25.108;2022-10-23T00:52:34;15.20;;;7.22;;
21959;SDS011;11144;43.030;25.108;2022-10-23T00:54:12;12.48;;;6.65;;
21959;SDS011;11144;43.030;25.108;2022-10-23T00:55:56;14.43;;;6.35;;
21959;SDS011;11144;43.030;25.108;2022-10-23T00:57:30;11.07;;;7.10;;
21959;SDS011;11144;43.030;25.108;2022-10-23T00:59:02;11.15;;;6.32;;
21959;SDS011;11144;43.030;25.108;2022-10-23T01:00:43;14.98;;;6.22;;
21959;SDS011;11144;43.030;25.108;2022-10-23T01:02:17;17.02;;;7.80;;
21959;SDS011;11144;43.030;25.108;2022-10-23T01:03:53;15.25;;;7.13;;
21959;SDS011;11144;43.030;25.108;2022-10-23T01:05:29;12.73;;;7.00;;
21959;SDS011;11144;43.030;25.108;2022-10-23T01:07:24;18.05;;;7.30;;
21959;SDS011;11144;43.030;25.108;2022-10-23T01:09:04;13.70;;;6.93;;
21959;SDS011;11144;43.030;25.108;2022-10-23T01:10:46;21.15;;;8.10;;
21959;SDS011;11144;43.030;25.108;2022-10-23T01:12:27;16.48;;;7.95;;
21959;SDS011;11144;43.030;25.108;2022-10-23T01:14:09;15.63;;;8.27;;
21959;SDS011;11144;43.030;25.108;2022-10-23T01:15:51;14.65;;;7.97;;
21959;SDS011;11144;43.030;25.108;2022-10-23T01:17:31;15.00;;;6.93;;
21959;SDS011;11144;43.030;25.108;2022-10-23T01:19:16;16.23;;;8.15;;
21959;SDS011;11144;43.030;25.108;2022-10-23T01:20:54;14.90;;;6.65;;
21959;SDS011;11144;43.030;25.108;2022-10-23T01:22:46;11.10;;;6.68;;
21959;SDS011;11144;43.030;25.108;2022-10-23T01:24:47;21.50;;;8.00;;
21959;SDS011;11144;43.030;25.108;2022-10-23T01:26:32;16.05;;;7.38;;
21959;SDS011;11144;43.030;25.108;2022-10-23T01:28:20;11.93;;;6.60;;
21959;SDS011;11144;43.030;25.108;2022-10-23T01:30:01;14.25;;;7.25;;
21959;SDS011;11144;43.030;25.108;2022-10-23T01:31:42;17.10;;;7.20;;
21959;SDS011;11144;43.030;25.108;2022-10-23T01:33:22;16.58;;;7.03;;
21959;SDS011;11144;43.030;25.108;2022-10-23T01:35:00;15.35;;;7.05;;
21959;SDS011;11144;43.030;25.108;2022-10-23T01:36:37;12.35;;;8.02;;
21959;SDS011;11144;43.030;25.108;2022-10-23T01:38:13;15.07;;;7.93;;
21959;SDS011;11144;43.030;25.108;2022-10-23T01:39:51;19.15;;;8.13;;
21959;SDS011;11144;43.030;25.108;2022-10-23T01:41:28;19.15;;;9.60;;
21959;SDS011;11144;43.030;25.108;2022-10-23T01:43:09;18.63;;;10.25;;
21959;SDS011;11144;43.030;25.108;2022-10-23T01:44:49;16.73;;;8.70;;
21959;SDS011;11144;43.030;25.108;2022-10-23T01:46:25;11.50;;;6.90;;
21959;SDS011;11144;43.030;25.108;2022-10-23T01:47:59;15.48;;;7.70;;
21959;SDS011;11144;43.030;25.108;2022-10-23T01:49:36;14.73;;;7.78;;
21959;SDS011;11144;43.030;25.108;2022-10-23T01:51:12;12.13;;;7.13;;
21959;SDS011;11144;43.030;25.108;2022-10-23T01:52:47;13.60;;;6.70;;
21959;SDS011;11144;43.030;25.108;2022-10-23T01:54:21;14.85;;;6.80;;
21959;SDS011;11144;43.030;25.108;2022-10-23T01:55:56;11.07;;;6.57;;
21959;SDS011;11144;43.030;25.108;2022-10-23T01:57:34;13.95;;;7.10;;
21959;SDS011;11144;43.030;25.108;2022-10-23T01:59:11;17.60;;;6.90;;
21959;SDS011;11144;43.030;25.108;2022-10-23T02:00:50;11.77;;;7.28;;
21959;SDS011;11144;43.030;25.108;2022-10-23T02:02:27;16.98;;;9.13;;
21959;SDS011;11144;43.030;25.108;2022-10-23T02:04:06;13.60;;;7.70;;
21959;SDS011;11144;43.030;25.108;2022-10-23T02:05:44;21.50;;;10.25;;
21959;SDS011;11144;43.030;25.108;2022-10-23T02:07:17;14.65;;;8.02;;
21959;SDS011;11144;43.030;25.108;2022-10-23T02:08:50;13.52;;;7.38;;
21959;SDS011;11144;43.030;25.108;2022-10-23T02:10:24;15.77;;;7.65;;
21959;SDS011;11144;43.030;25.108;2022-10-23T02:12:05;13.48;;;6.88;;
21959;SDS011;11144;43.030;25.108;2022-10-23T02:13:41;11.43;;;6.82;;
21959;SDS011;11144;43.030;25.108;2022-10-23T02:15:23;12.77;;;8.02;;
21959;SDS011;11144;43.030;25.108;2022-10-23T02:17:03;15.00;;;8.38;;
21959;SDS011;11144;43.030;25.108;2022-10-23T02:18:49;16.88;;;8.45;;
21959;SDS011;11144;43.030;25.108;2022-10-23T02:20:31;12.25;;;7.80;;
21959;SDS011;11144;43.030;25.108;2022-10-23T02:22:09;12.63;;;7.22;;
21959;SDS011;11144;43.030;25.108;2022-10-23T02:23:45;17.85;;;7.07;;
21959;SDS011;11144;43.030;25.108;2022-10-23T02:25:29;13.02;;;7.03;;
21959;SDS011;11144;43.030;25.108;2022-10-23T02:27:07;15.85;;;8.38;;
21959;SDS011;11144;43.030;25.108;2022-10-23T02:28:46;15.88;;;8.48;;
21959;SDS011;11144;43.030;25.108;2022-10-23T02:30:23;15.05;;;7.95;;
21959;SDS011;11144;43.030;25.108;2022-10-23T02:32:11;14.52;;;7.85;;
21959;SDS011;11144;43.030;25.108;2022-10-23T02:33:46;11.75;;;7.22;;
21959;SDS011;11144;43.030;25.108;2022-10-23T02:35:19;14.52;;;7.10;;
21959;SDS011;11144;43.030;25.108;2022-10-23T02:37:01;13.18;;;7.35;;
21959;SDS011;11144;43.030;25.108;2022-10-23T02:38:36;15.38;;;7.15;;
21959;SDS011;11144;43.030;25.108;2022-10-23T02:40:12;11.95;;;7.53;;
21959;SDS011;11144;43.030;25.108;2022-10-23T02:41:49;12.15;;;7.78;;
21959;SDS011;11144;43.030;25.108;2022-10-23T02:43:28;15.60;;;8.07;;
21959;SDS011;11144;43.030;25.108;2022-10-23T02:45:08;13.63;;;7.28;;
21959;SDS011;11144;43.030;25.108;2022-10-23T02:46:49;14.32;;;7.78;;
21959;SDS011;11144;43.030;25.108;2022-10-23T02:48:28;15.43;;;7.88;;
21959;SDS011;11144;43.030;25.108;2022-10-23T02:50:15;15.02;;;8.75;;
21959;SDS011;11144;43.030;25.108;2022-10-23T02:52:01;11.55;;;7.05;;
21959;SDS011;11144;43.030;25.108;2022-10-23T02:53:43;14.57;;;6.72;;
21959;SDS011;11144;43.030;25.108;2022-10-23T02:55:27;14.07;;;7.53;;
21959;SDS011;11144;43.030;25.108;2022-10-23T02:57:15;14.63;;;7.45;;
21959;SDS011;11144;43.030;25.108;2022-10-23T02:58:54;17.27;;;7.85;;
21959;SDS011;11144;43.030;25.108;2022-10-23T03:00:37;14.73;;;8.80;;
21959;SDS011;11144;43.030;25.108;2022-10-23T03:02:15;19.33;;;7.53;;
21959;SDS011;11144;43.030;25.108;2022-10-23T03:03:55;13.77;;;7.40;;
21959;SDS011;11144;43.030;25.108;2022-10-23T03:05:31;14.55;;;7.93;;
21959;SDS011;11144;43.030;25.108;2022-10-23T03:07:09;17.15;;;8.10;;
21959;SDS011;11144;43.030;25.108;2022-10-23T03:08:44;15.63;;;8.45;;
21959;SDS011;11144;43.030;25.108;2022-10-23T03:10:22;11.70;;;7.18;;
21959;SDS011;11144;43.030;25.108;2022-10-23T03:11:56;12.60;;;7.28;;
21959;SDS011;11144;43.030;25.108;2022-10-23T03:13:29;12.90;;;7.55;;
21959;SDS011;11144;43.030;25.108;2022-10-23T03:15:03;14.75;;;8.35;;
21959;SDS011;11144;43.030;25.108;2022-10-23T03:16:36;11.90;;;7.00;;
21959;SDS011;11144;43.030;25.108;2022-10-23T03:18:10;17.02;;;6.97;;
21959;SDS011;11144;43.030;25.108;2022-10-23T03:19:46;14.63;;;8.10;;
21959;SDS011;11144;43.030;25.108;2022-10-23T03:21:20;14.75;;;6.95;;
21959;SDS011;11144;43.030;25.108;2022-10-23T03:22:56;15.90;;;7.18;;
21959;SDS011;11144;43.030;25.108;2022-10-23T03:24:30;13.00;;;7.05;;
21959;SDS011;11144;43.030;25.108;2022-10-23T03:26:04;14.73;;;7.28;;
21959;SDS011;11144;43.030;25.108;2022-10-23T03:27:41;15.50;;;7.85;;
21959;SDS011;11144;43.030;25.108;2022-10-23T03:29:18;13.82;;;7.75;;
21959;SDS011;11144;43.030;25.108;2022-10-23T03:30:53;18.70;;;7.95;;
21959;SDS011;11144;43.030;25.108;2022-10-23T03:32:27;18.25;;;7.53;;
21959;SDS011;11144;43.030;25.108;2022-10-23T03:34:00;15.70;;;7.47;;
21959;SDS011;11144;43.030;25.108;2022-10-23T03:35:39;18.20;;;8.15;;
21959;SDS011;11144;43.030;25.108;2022-10-23T03:37:16;15.57;;;7.65;;
21959;SDS011;11144;43.030;25.108;2022-10-23T03:38:50;14.45;;;8.00;;
21959;SDS011;11144;43.030;25.108;2022-10-23T03:40:24;15.00;;;8.05;;
21959;SDS011;11144;43.030;25.108;2022-10-23T03:41:57;13.35;;;7.05;;
21959;SDS011;11144;43.030;25.108;2022-10-23T03:43:32;13.15;;;7.43;;
21959;SDS011;11144;43.030;25.108;2022-10-23T03:45:06;12.88;;;7.55;;
21959;SDS011;11144;43.030;25.108;2022-10-23T03:46:39;22.33;;;7.55;;
21959;SDS011;11144;43.030;25.108;2022-10-23T03:48:14;11.15;;;7.28;;
21959;SDS011;11144;43.030;25.108;2022-10-23T03:49:48;14.75;;;7.65;;
21959;SDS011;11144;43.030;25.108;2022-10-23T03:51:23;15.90;;;7.40;;
21959;SDS011;11144;43.030;25.108;2022-10-23T03:52:57;17.35;;;9.20;;
21959;SDS011;11144;43.030;25.108;2022-10-23T03:54:30;12.52;;;7.80;;
21959;SDS011;11144;43.030;25.108;2022-10-23T03:56:04;16.40;;;7.28;;
21959;SDS011;11144;43.030;25.108;2022-10-23T03:57:38;13.75;;;7.43;;
21959;SDS011;11144;43.030;25.108;2022-10-23T03:59:11;16.65;;;7.47;;
21959;SDS011;11144;43.030;25.108;2022-10-23T04:00:44;15.30;;;7.45;;
21959;SDS011;11144;43.030;25.108;2022-10-23T04:02:17;14.02;;;7.20;;
21959;SDS011;11144;43.030;25.108;2022-10-23T04:03:51;14.57;;;7.32;;
21959;SDS011;11144;43.030;25.108;2022-10-23T04:05:26;13.75;;;6.55;;
21959;SDS011;11144;43.030;25.108;2022-10-23T04:07:03;12.38;;;7.20;;
21959;SDS011;11144;43.030;25.108;2022-10-23T04:08:36;13.82;;;7.05;;
21959;SDS011;11144;43.030;25.108;2022-10-23T04:10:16;13.52;;;6.57;;
21959;SDS011;11144;43.030;25.108;2022-10-23T04:11:50;19.65;;;8.48;;
21959;SDS011;11144;43.030;25.108;2022-10-23T04:13:23;21.42;;;7.63;;
21959;SDS011;11144;43.030;25.108;2022-10-23T04:14:56;21.45;;;10.52;;
21959;SDS011;11144;43.030;25.108;2022-10-23T04:16:30;17.40;;;8.88;;
21959;SDS011;11144;43.030;25.108;2022-10-23T04:18:03;18.40;;;7.65;;
21959;SDS011;11144;43.030;25.108;2022-10-23T04:19:37;53.72;;;33.22;;
21959;SDS011;11144;43.030;25.108;2022-10-23T04:21:10;24.13;;;14.85;;
21959;SDS011;11144;43.030;25.108;2022-10-23T04:22:45;27.45;;;15.52;;
21959;SDS011;11144;43.030;25.108;2022-10-23T04:24:18;18.00;;;8.95;;
21959;SDS011;11144;43.030;25.108;2022-10-23T04:25:54;35.78;;;19.23;;
21959;SDS011;11144;43.030;25.108;2022-10-23T04:27:29;14.68;;;7.70;;
21959;SDS011;11144;43.030;25.108;2022-10-23T04:29:03;10.90;;;6.25;;
21959;SDS011;11144;43.030;25.108;2022-10-23T04:30:36;13.88;;;6.40;;
21959;SDS011;11144;43.030;25.108;2022-10-23T04:32:09;12.88;;;7.05;;
21959;SDS011;11144;43.030;25.108;2022-10-23T04:33:43;12.80;;;6.78;;
21959;SDS011;11144;43.030;25.108;2022-10-23T04:35:30;13.30;;;6.68;;
21959;SDS011;11144;43.030;25.108;2022-10-23T04:37:03;10.10;;;6.43;;
21959;SDS011;11144;43.030;25.108;2022-10-23T04:38:38;16.42;;;6.07;;
21959;SDS011;11144;43.030;25.108;2022-10-23T04:40:11;14.60;;;6.93;;
21959;SDS011;11144;43.030;25.108;2022-10-23T04:41:44;14.55;;;7.60;;
21959;SDS011;11144;43.030;25.108;2022-10-23T04:43:17;18.63;;;7.50;;
21959;SDS011;11144;43.030;25.108;2022-10-23T04:44:51;11.60;;;6.38;;
21959;SDS011;11144;43.030;25.108;2022-10-23T04:46:24;13.77;;;6.97;;
21959;SDS011;11144;43.030;25.108;2022-10-23T04:47:57;15.27;;;8.45;;
21959;SDS011;11144;43.030;25.108;2022-10-23T04:49:33;17.85;;;7.03;;
21959;SDS011;11144;43.030;25.108;2022-10-23T04:51:36;15.48;;;7.47;;
21959;SDS011;11144;43.030;25.108;2022-10-23T04:53:27;16.33;;;6.30;;
21959;SDS011;11144;43.030;25.108;2022-10-23T04:55:17;13.65;;;6.97;;
21959;SDS011;11144;43.030;25.108;2022-10-23T04:57:14;15.75;;;8.02;;
21959;SDS011;11144;43.030;25.108;2022-10-23T04:58:58;11.18;;;6.35;;
21959;SDS011;11144;43.030;25.108;2022-10-23T05:00:32;15.05;;;6.25;;
21959;SDS011;11144;43.030;25.108;2022-10-23T05:02:06;11.80;;;5.88;;
21959;SDS011;11144;43.030;25.108;2022-10-23T05:03:39;17.90;;;8.32;;
21959;SDS011;11144;43.030;25.108;2022-10-23T05:05:13;11.05;;;6.38;;
21959;SDS011;11144;43.030;25.108;2022-10-23T05:07:05;12.82;;;7.35;;
21959;SDS011;11144;43.030;25.108;2022-10-23T05:09:06;19.95;;;8.35;;
21959;SDS011;11144;43.030;25.108;2022-10-23T05:10:48;23.00;;;8.90;;
21959;SDS011;11144;43.030;25.108;2022-10-23T05:12:22;26.00;;;12.93;;
21959;SDS011;11144;43.030;25.108;2022-10-23T05:13:56;24.17;;;13.30;;
21959;SDS011;11144;43.030;25.108;2022-10-23T05:15:30;27.17;;;13.15;;
21959;SDS011;11144;43.030;25.108;2022-10-23T05:17:06;35.55;;;17.23;;
21959;SDS011;11144;43.030;25.108;2022-10-23T05:18:44;38.28;;;20.80;;
21959;SDS011;11144;43.030;25.108;2022-10-23T05:20:20;30.70;;;17.30;;
21959;SDS011;11144;43.030;25.108;2022-10-23T05:21:56;27.38;;;16.83;;
21959;SDS011;11144;43.030;25.108;2022-10-23T05:23:35;18.15;;;8.00;;
21959;SDS011;11144;43.030;25.108;2022-10-23T05:25:10;18.80;;;8.20;;
21959;SDS011;11144;43.030;25.108;2022-10-23T05:26:49;17.23;;;8.68;;
21959;SDS011;11144;43.030;25.108;2022-10-23T05:28:24;19.33;;;11.57;;
21959;SDS011;11144;43.030;25.108;2022-10-23T05:29:57;26.23;;;13.85;;
21959;SDS011;11144;43.030;25.108;2022-10-23T05:31:34;22.55;;;11.52;;
21959;SDS011;11144;43.030;25.108;2022-10-23T05:33:14;22.33;;;11.68;;
21959;SDS011;11144;43.030;25.108;2022-10-23T05:34:48;26.27;;;12.90;;
21959;SDS011;11144;43.030;25.108;2022-10-23T05:36:21;26.50;;;13.73;;
21959;SDS011;11144;43.030;25.108;2022-10-23T05:38:00;22.75;;;12.32;;
21959;SDS011;11144;43.030;25.108;2022-10-23T05:39:35;22.65;;;12.52;;
21959;SDS011;11144;43.030;25.108;2022-10-23T05:41:13;27.08;;;12.35;;
21959;SDS011;11144;43.030;25.108;2022-10-23T05:42:48;22.85;;;12.85;;
21959;SDS011;11144;43.030;25.108;2022-10-23T05:44:28;32.55;;;13.55;;
21959;SDS011;11144;43.030;25.108;2022-10-23T05:46:18;24.17;;;12.93;;
21959;SDS011;11144;43.030;25.108;2022-10-23T05:48:15;103.35;;;34.70;;
21959;SDS011;11144;43.030;25.108;2022-10-23T05:50:24;212.35;;;65.70;;
21959;SDS011;11144;43.030;25.108;2022-10-23T05:52:17;227.77;;;70.97;;
21959;SDS011;11144;43.030;25.108;2022-10-23T05:54:07;143.48;;;46.85;;
21959;SDS011;11144;43.030;25.108;2022-10-23T05:56:10;94.63;;;35.80;;
21959;SDS011;11144;43.030;25.108;2022-10-23T05:57:49;84.72;;;32.75;;
21959;SDS011;11144;43.030;25.108;2022-10-23T05:59:33;118.25;;;42.25;;
21959;SDS011;11144;43.030;25.108;2022-10-23T06:01:24;131.63;;;46.50;;
21959;SDS011;11144;43.030;25.108;2022-10-23T06:03:03;125.30;;;47.88;;
21959;SDS011;11144;43.030;25.108;2022-10-23T06:04:43;102.53;;;41.65;;
21959;SDS011;11144;43.030;25.108;2022-10-23T06:06:35;109.45;;;46.50;;
21959;SDS011;11144;43.030;25.108;2022-10-23T06:08:08;89.53;;;38.03;;
21959;SDS011;11144;43.030;25.108;2022-10-23T06:09:41;86.20;;;36.35;;
21959;SDS011;11144;43.030;25.108;2022-10-23T06:11:16;75.90;;;34.60;;
21959;SDS011;11144;43.030;25.108;2022-10-23T06:13:00;60.13;;;31.13;;
21959;SDS011;11144;43.030;25.108;2022-10-23T06:14:33;64.50;;;32.63;;
21959;SDS011;11144;43.030;25.108;2022-10-23T06:16:07;48.88;;;24.92;;
21959;SDS011;11144;43.030;25.108;2022-10-23T06:17:42;46.42;;;23.98;;
21959;SDS011;11144;43.030;25.108;2022-10-23T06:19:16;28.83;;;15.18;;
21959;SDS011;11144;43.030;25.108;2022-10-23T06:20:52;35.20;;;18.10;;
21959;SDS011;11144;43.030;25.108;2022-10-23T06:22:29;24.52;;;15.23;;
21959;SDS011;11144;43.030;25.108;2022-10-23T06:24:14;29.23;;;15.00;;
21959;SDS011;11144;43.030;25.108;2022-10-23T06:25:52;25.88;;;14.43;;
21959;SDS011;11144;43.030;25.108;2022-10-23T06:27:35;17.27;;;10.15;;
21959;SDS011;11144;43.030;25.108;2022-10-23T06:29:10;20.23;;;10.52;;
21959;SDS011;11144;43.030;25.108;2022-10-23T06:30:45;20.38;;;11.50;;
21959;SDS011;11144;43.030;25.108;2022-10-23T06:32:19;19.15;;;10.35;;
21959;SDS011;11144;43.030;25.108;2022-10-23T06:34:12;26.20;;;10.95;;
21959;SDS011;11144;43.030;25.108;2022-10-23T06:35:45;15.50;;;8.68;;
21959;SDS011;11144;43.030;25.108;2022-10-23T06:37:20;13.25;;;7.85;;
21959;SDS011;11144;43.030;25.108;2022-10-23T06:39:03;14.00;;;6.65;;
21959;SDS011;11144;43.030;25.108;2022-10-23T06:41:00;11.20;;;6.43;;
21959;SDS011;11144;43.030;25.108;2022-10-23T06:42:39;15.25;;;6.65;;
21959;SDS011;11144;43.030;25.108;2022-10-23T06:44:32;15.43;;;7.07;;
21959;SDS011;11144;43.030;25.108;2022-10-23T06:46:12;11.40;;;5.75;;
21959;SDS011;11144;43.030;25.108;2022-10-23T06:48:09;7.70;;;4.88;;
21959;SDS011;11144;43.030;25.108;2022-10-23T06:49:45;8.02;;;5.15;;
21959;SDS011;11144;43.030;25.108;2022-10-23T06:51:18;9.50;;;4.78;;
21959;SDS011;11144;43.030;25.108;2022-10-23T06:52:53;8.52;;;4.72;;
21959;SDS011;11144;43.030;25.108;2022-10-23T06:54:26;8.32;;;5.30;;
21959;SDS011;11144;43.030;25.108;2022-10-23T06:56:15;17.85;;;5.65;;
21959;SDS011;11144;43.030;25.108;2022-10-23T06:57:51;8.80;;;4.43;;
21959;SDS011;11144;43.030;25.108;2022-10-23T06:59:25;11.15;;;4.82;;
21959;SDS011;11144;43.030;25.108;2022-10-23T07:01:00;10.02;;;4.80;;
21959;SDS011;11144;43.030;25.108;2022-10-23T07:02:34;13.02;;;5.07;;
21959;SDS011;11144;43.030;25.108;2022-10-23T07:04:08;5.20;;;3.92;;
21959;SDS011;11144;43.030;25.108;2022-10-23T07:05:44;11.63;;;5.20;;
21959;SDS011;11144;43.030;25.108;2022-10-23T07:07:19;10.82;;;5.40;;
21959;SDS011;11144;43.030;25.108;2022-10-23T07:08:53;8.23;;;3.40;;
21959;SDS011;11144;43.030;25.108;2022-10-23T07:10:44;11.93;;;4.05;;
21959;SDS011;11144;43.030;25.108;2022-10-23T07:12:22;6.25;;;3.47;;
21959;SDS011;11144;43.030;25.108;2022-10-23T07:14:10;7.68;;;3.53;;
21959;SDS011;11144;43.030;25.108;2022-10-23T07:15:43;5.88;;;3.97;;
21959;SDS011;11144;43.030;25.108;2022-10-23T07:17:22;5.82;;;3.88;;
21959;SDS011;11144;43.030;25.108;2022-10-23T07:18:57;14.30;;;4.88;;
21959;SDS011;11144;43.030;25.108;2022-10-23T07:20:31;4.78;;;3.30;;
21959;SDS011;11144;43.030;25.108;2022-10-23T07:22:05;18.25;;;4.85;;
21959;SDS011;11144;43.030;25.108;2022-10-23T07:24:13;5.28;;;3.63;;
21959;SDS011;11144;43.030;25.108;2022-10-23T07:25:46;5.18;;;3.65;;
21959;SDS011;11144;43.030;25.108;2022-10-23T07:27:25;7.20;;;3.20;;
21959;SDS011;11144;43.030;25.108;2022-10-23T07:29:00;21.00;;;11.35;;
21959;SDS011;11144;43.030;25.108;2022-10-23T07:30:36;5.68;;;3.40;;
21959;SDS011;11144;43.030;25.108;2022-10-23T07:32:12;16.40;;;4.95;;
21959;SDS011;11144;43.030;25.108;2022-10-23T07:34:19;5.78;;;2.42;;
21959;SDS011;11144;43.030;25.108;2022-10-23T07:36:05;4.00;;;2.90;;
21959;SDS011;11144;43.030;25.108;2022-10-23T07:37:40;7.85;;;3.95;;
21959;SDS011;11144;43.030;25.108;2022-10-23T07:39:14;7.00;;;3.03;;
21959;SDS011;11144;43.030;25.108;2022-10-23T07:40:55;5.72;;;2.63;;
21959;SDS011;11144;43.030;25.108;2022-10-23T07:42:29;6.28;;;2.75;;
21959;SDS011;11144;43.030;25.108;2022-10-23T07:44:03;5.50;;;3.13;;
21959;SDS011;11144;43.030;25.108;2022-10-23T07:45:36;5.25;;;3.00;;
21959;SDS011;11144;43.030;25.108;2022-10-23T07:47:22;9.07;;;3.20;;
21959;SDS011;11144;43.030;25.108;2022-10-23T07:48:56;5.22;;;2.30;;
21959;SDS011;11144;43.030;25.108;2022-10-23T07:50:31;4.70;;;1.92;;
21959;SDS011;11144;43.030;25.108;2022-10-23T07:52:04;6.65;;;1.70;;
21959;SDS011;11144;43.030;25.108;2022-10-23T07:53:58;3.58;;;1.73;;
21959;SDS011;11144;43.030;25.108;2022-10-23T07:55:51;3.67;;;1.83;;
21959;SDS011;11144;43.030;25.108;2022-10-23T07:57:26;6.35;;;2.30;;
21959;SDS011;11144;43.030;25.108;2022-10-23T07:59:09;2.78;;;1.55;;
21959;SDS011;11144;43.030;25.108;2022-10-23T08:00:46;5.35;;;2.13;;
21959;SDS011;11144;43.030;25.108;2022-10-23T08:02:30;6.22;;;2.22;;
21959;SDS011;11144;43.030;25.108;2022-10-23T08:04:04;5.90;;;2.83;;
21959;SDS011;11144;43.030;25.108;2022-10-23T08:05:43;4.80;;;2.08;;
21959;SDS011;11144;43.030;25.108;2022-10-23T08:07:17;4.32;;;1.83;;
21959;SDS011;11144;43.030;25.108;2022-10-23T08:08:52;5.20;;;2.03;;
21959;SDS011;11144;43.030;25.108;2022-10-23T08:10:25;4.65;;;2.30;;
21959;SDS011;11144;43.030;25.108;2022-10-23T08:11:59;8.68;;;3.50;;
21959;SDS011;11144;43.030;25.108;2022-10-23T08:13:33;7.55;;;2.55;;
21959;SDS011;11144;43.030;25.108;2022-10-23T08:15:09;4.03;;;2.60;;
21959;SDS011;11144;43.030;25.108;2022-10-23T08:16:54;4.63;;;2.45;;
21959;SDS011;11144;43.030;25.108;2022-10-23T08:18:59;3.63;;;2.33;;
21959;SDS011;11144;43.030;25.108;2022-10-23T08:20:36;3.80;;;1.85;;
21959;SDS011;11144;43.030;25.108;2022-10-23T08:22:13;4.25;;;2.20;;
21959;SDS011;11144;43.030;25.108;2022-10-23T08:23:47;4.88;;;1.70;;
21959;SDS011;11144;43.030;25.108;2022-10-23T08:25:21;2.35;;;1.15;;
21959;SDS011;11144;43.030;25.108;2022-10-23T08:26:57;2.33;;;1.45;;
21959;SDS011;11144;43.030;25.108;2022-10-23T08:28:33;2.10;;;1.58;;
21959;SDS011;11144;43.030;25.108;2022-10-23T08:30:08;4.97;;;1.60;;
21959;SDS011;11144;43.030;25.108;2022-10-23T08:31:42;4.18;;;1.90;;
21959;SDS011;11144;43.030;25.108;2022-10-23T08:33:22;5.15;;;1.70;;
21959;SDS011;11144;43.030;25.108;2022-10-23T08:34:55;9.57;;;1.35;;
21959;SDS011;11144;43.030;25.108;2022-10-23T08:36:31;2.38;;;1.00;;
21959;SDS011;11144;43.030;25.108;2022-10-23T08:38:09;4.55;;;1.58;;
21959;SDS011;11144;43.030;25.108;2022-10-23T08:39:48;3.75;;;1.85;;
21959;SDS011;11144;43.030;25.108;2022-10-23T08:41:31;5.68;;;2.10;;
21959;SDS011;11144;43.030;25.108;2022-10-23T08:43:13;9.25;;;2.60;;
21959;SDS011;11144;43.030;25.108;2022-10-23T08:45:04;2.38;;;1.25;;
21959;SDS011;11144;43.030;25.108;2022-10-23T08:46:43;1.90;;;1.10;;
21959;SDS011;11144;43.030;25.108;2022-10-23T08:48:40;10.00;;;1.73;;
21959;SDS011;11144;43.030;25.108;2022-10-23T08:50:48;2.20;;;1.42;;
21959;SDS011;11144;43.030;25.108;2022-10-23T08:52:26;2.13;;;1.17;;
21959;SDS011;11144;43.030;25.108;2022-10-23T08:54:07;6.70;;;1.30;;
21959;SDS011;11144;43.030;25.108;2022-10-23T08:55:48;1.77;;;1.23;;
21959;SDS011;11144;43.030;25.108;2022-10-23T08:57:27;4.70;;;1.27;;
21959;SDS011;11144;43.030;25.108;2022-10-23T08:59:12;2.47;;;0.90;;
21959;SDS011;11144;43.030;25.108;2022-10-23T09:00:53;1.42;;;1.10;;
21959;SDS011;11144;43.030;25.108;2022-10-23T09:02:27;2.28;;;0.88;;
21959;SDS011;11144;43.030;25.108;2022-10-23T09:04:05;4.68;;;1.48;;
21959;SDS011;11144;43.030;25.108;2022-10-23T09:05:47;4.68;;;1.20;;
21959;SDS011;11144;43.030;25.108;2022-10-23T09:07:33;3.50;;;0.95;;
21959;SDS011;11144;43.030;25.108;2022-10-23T09:09:20;5.25;;;0.85;;
21959;SDS011;11144;43.030;25.108;2022-10-23T09:10:57;9.68;;;1.50;;
21959;SDS011;11144;43.030;25.108;2022-10-23T09:12:34;1.52;;;0.63;;
21959;SDS011;11144;43.030;25.108;2022-10-23T09:14:19;1.50;;;0.60;;
21959;SDS011;11144;43.030;25.108;2022-10-23T09:16:09;4.57;;;1.23;;
21959;SDS011;11144;43.030;25.108;2022-10-23T09:17:53;2.88;;;0.40;;
21959;SDS011;11144;43.030;25.108;2022-10-23T09:19:29;1.92;;;0.40;;
21959;SDS011;11144;43.030;25.108;2022-10-23T09:21:07;4.30;;;0.70;;
21959;SDS011;11144;43.030;25.108;2022-10-23T09:22:41;4.63;;;0.60;;
21959;SDS011;11144;43.030;25.108;2022-10-23T09:24:15;6.53;;;0.50;;
21959;SDS011;11144;43.030;25.108;2022-10-23T09:25:52;3.50;;;0.57;;
21959;SDS011;11144;43.030;25.108;2022-10-23T09:27:27;4.75;;;1.10;;
21959;SDS011;11144;43.030;25.108;2022-10-23T09:29:02;4.63;;;0.80;;
21959;SDS011;11144;43.030;25.108;2022-10-23T09:30:46;13.15;;;0.65;;
21959;SDS011;11144;43.030;25.108;2022-10-23T09:32:31;5.40;;;0.57;;
21959;SDS011;11144;43.030;25.108;2022-10-23T09:34:05;3.47;;;0.63;;
21959;SDS011;11144;43.030;25.108;2022-10-23T09:35:51;13.90;;;0.93;;
21959;SDS011;11144;43.030;25.108;2022-10-23T09:37:26;10.00;;;1.05;;